Time;durP1;ratioP1;P1;durP2;ratioP2;P2;SDS_P1;SDS_P2;PMS_P1;PMS_P2;Temp;Humidity;BMP_temperature;BMP_pressure;BME280_temperature;BME280_humidity;BME280_pressure;Samples;Min_cycle;Max_cycle;Signal;HPM_P1;HPM_P2
2021/05/30 00:01:13;;;;;;;22.33;16.77;;;11.10;94.00;;;;;;5027005;28;20049;-51
2021/05/30 00:03:42;;;;;;;21.55;17.27;;;11.10;94.00;;;;;;5008060;28;20057;-50
2021/05/30 00:06:11;;;;;;;25.08;19.10;;;11.10;94.00;;;;;;5026910;28;20050;-49
2021/05/30 00:08:41;;;;;;;22.95;17.52;;;11.10;94.10;;;;;;5009694;28;20662;-49
2021/05/30 00:11:11;;;;;;;24.48;16.70;;;11.10;94.00;;;;;;5027437;28;20115;-49
2021/05/30 00:13:41;;;;;;;21.35;16.75;;;11.00;94.00;;;;;;5027616;28;20046;-49
2021/05/30 00:16:10;;;;;;;24.25;19.20;;;11.00;94.10;;;;;;5027165;28;20049;-49
2021/05/30 00:18:41;;;;;;;25.63;17.33;;;11.00;94.00;;;;;;5027481;28;20132;-52
2021/05/30 00:21:10;;;;;;;22.98;16.58;;;10.90;93.80;;;;;;5005719;28;20045;-51
2021/05/30 00:23:41;;;;;;;23.38;17.35;;;10.90;93.90;;;;;;5025750;28;20151;-50
2021/05/30 00:26:11;;;;;;;22.52;16.20;;;10.80;93.90;;;;;;5027259;28;20045;-49
2021/05/30 00:28:41;;;;;;;20.33;16.05;;;10.80;94.20;;;;;;5027067;28;20053;-51
2021/05/30 00:31:15;;;;;;;23.15;16.95;;;10.80;94.20;;;;;;5026763;28;20089;-49
2021/05/30 00:33:50;;;;;;;25.83;15.90;;;10.80;94.30;;;;;;5021875;28;20596;-49
2021/05/30 00:36:19;;;;;;;21.67;12.73;;;10.70;94.30;;;;;;5027071;28;20128;-49
2021/05/30 00:38:51;;;;;;;17.70;13.52;;;10.70;94.20;;;;;;5023146;28;20053;-48
2021/05/30 00:41:17;;;;;;;18.15;12.82;;;10.50;94.20;;;;;;5026640;28;20065;-50
2021/05/30 00:43:54;;;;;;;19.35;11.52;;;10.40;94.10;;;;;;5026903;28;20056;-50
2021/05/30 00:46:21;;;;;;;18.20;11.75;;;10.30;94.20;;;;;;5026766;28;20049;-49
2021/05/30 00:48:53;;;;;;;15.18;11.82;;;10.20;94.40;;;;;;5034894;28;20081;-49
2021/05/30 00:51:26;;;;;;;14.63;10.93;;;10.20;94.30;;;;;;5024179;28;20061;-48
2021/05/30 00:53:53;;;;;;;18.92;11.48;;;10.10;94.50;;;;;;5027222;28;20049;-49
2021/05/30 00:56:23;;;;;;;14.63;11.32;;;10.10;94.60;;;;;;5026368;28;20073;-49
2021/05/30 00:58:54;;;;;;;18.45;12.07;;;10.10;94.70;;;;;;5027416;28;20076;-48
2021/05/30 01:01:23;;;;;;;20.10;12.18;;;10.00;94.80;;;;;;5027885;28;20561;-49
2021/05/30 01:03:52;;;;;;;21.27;11.68;;;10.00;94.90;;;;;;5026713;28;20042;-48
2021/05/30 01:06:30;;;;;;;17.55;11.77;;;9.90;95.10;;;;;;5025313;28;20049;-49
2021/05/30 01:09:00;;;;;;;19.95;13.45;;;9.90;95.20;;;;;;5026386;28;20054;-48
2021/05/30 01:11:31;;;;;;;19.42;13.18;;;9.90;95.20;;;;;;5016968;28;20041;-50
2021/05/30 01:14:05;;;;;;;18.98;12.43;;;9.90;95.40;;;;;;5025921;28;20061;-49
2021/05/30 01:16:40;;;;;;;16.10;12.80;;;9.80;95.30;;;;;;5026699;28;20171;-50
2021/05/30 01:19:12;;;;;;;21.33;13.57;;;9.70;95.40;;;;;;5026259;28;20053;-48
2021/05/30 01:21:39;;;;;;;;;;;9.70;95.70;;;;;;5026879;28;20421;-49
2021/05/30 01:24:12;;;;;;;17.23;12.50;;;9.70;96.90;;;;;;5024950;28;19936;-47
2021/05/30 01:26:45;;;;;;;20.88;13.73;;;9.70;95.90;;;;;;5026137;28;20417;-50
2021/05/30 01:29:17;;;;;;;;;;;9.60;96.10;;;;;;5026554;28;20041;-49
2021/05/30 01:31:49;;;;;;;19.80;13.35;;;9.70;97.30;;;;;;5022969;28;19924;-49
2021/05/30 01:34:15;;;;;;;19.73;12.13;;;9.60;96.30;;;;;;5025784;28;20108;-50
2021/05/30 01:36:46;;;;;;;20.48;14.02;;;9.60;95.90;;;;;;5026913;28;20333;-49
2021/05/30 01:39:16;;;;;;;20.42;13.57;;;9.60;96.20;;;;;;5025795;28;20049;-49
2021/05/30 01:41:45;;;;;;;25.58;13.65;;;9.60;96.10;;;;;;5026200;28;20092;-49
2021/05/30 01:44:14;;;;;;;21.08;13.73;;;9.60;96.30;;;;;;5026926;28;20091;-51
2021/05/30 01:46:49;;;;;;;15.48;12.30;;;9.50;96.30;;;;;;5023843;28;20053;-49
2021/05/30 01:49:20;;;;;;;20.77;14.82;;;9.50;96.50;;;;;;5025964;28;20064;-50
2021/05/30 01:51:51;;;;;;;19.10;13.85;;;9.40;96.60;;;;;;5029156;28;20042;-50
2021/05/30 01:54:25;;;;;;;19.35;13.68;;;9.40;96.80;;;;;;5030256;28;20056;-48
2021/05/30 01:56:57;;;;;;;17.63;13.50;;;9.30;96.80;;;;;;5031091;28;20049;-53
2021/05/30 01:59:34;;;;;;;19.52;14.00;;;9.30;96.90;;;;;;5030443;28;20136;-53
2021/05/30 02:02:06;;;;;;;21.90;13.88;;;9.20;96.90;;;;;;5030186;28;20049;-49
2021/05/30 02:04:37;;;;;;;;;;;9.20;97.00;;;;;;5028811;28;20724;-49
2021/05/30 02:07:04;;;;;;;21.88;14.32;;;9.10;98.00;;;;;;5030033;28;19994;-50
2021/05/30 02:09:37;;;;;;;20.33;14.40;;;9.00;97.40;;;;;;5029925;28;20166;-49
2021/05/30 02:12:09;;;;;;;20.45;14.15;;;9.00;97.50;;;;;;5030061;28;20493;-50
2021/05/30 02:14:41;;;;;;;22.17;14.40;;;8.90;97.80;;;;;;5027980;28;20045;-49
2021/05/30 02:17:14;;;;;;;21.00;14.38;;;8.90;97.70;;;;;;5030233;28;20147;-50
2021/05/30 02:19:41;;;;;;;19.73;13.95;;;8.80;97.70;;;;;;5029143;28;20815;-51
2021/05/30 02:22:08;;;;;;;19.63;13.65;;;8.80;98.00;;;;;;5029982;28;20501;-51
2021/05/30 02:24:42;;;;;;;18.88;13.13;;;8.70;97.70;;;;;;5029703;28;20081;-50
2021/05/30 02:27:13;;;;;;;18.23;14.05;;;8.70;98.10;;;;;;5029842;28;20172;-48
2021/05/30 02:29:42;;;;;;;21.20;13.88;;;8.60;98.10;;;;;;5029348;28;20081;-49
2021/05/30 02:32:20;;;;;;;19.75;14.40;;;8.60;98.30;;;;;;5028350;28;20064;-51
2021/05/30 02:34:51;;;;;;;24.48;14.32;;;8.60;98.30;;;;;;5029337;28;20553;-50
2021/05/30 02:37:24;;;;;;;22.38;14.00;;;8.50;98.10;;;;;;5026960;28;20046;-50
2021/05/30 02:39:53;;;;;;;21.17;14.75;;;8.50;98.30;;;;;;5028351;28;20073;-49
2021/05/30 02:42:22;;;;;;;20.95;14.95;;;8.50;98.60;;;;;;5028938;28;20132;-49
2021/05/30 02:44:56;;;;;;;22.42;16.25;;;8.50;98.50;;;;;;5028477;28;20045;-51
2021/05/30 02:47:30;;;;;;;25.33;16.77;;;8.40;98.60;;;;;;5029385;28;20144;-51
2021/05/30 02:50:00;;;;;;;20.75;15.73;;;8.30;98.50;;;;;;5029266;28;20056;-52
2021/05/30 02:52:29;;;;;;;22.20;16.08;;;8.30;98.70;;;;;;5029238;28;20049;-48
2021/05/30 02:54:58;;;;;;;24.35;16.58;;;8.20;98.80;;;;;;5029441;28;20053;-48
2021/05/30 02:57:28;;;;;;;23.75;15.70;;;8.20;99.10;;;;;;5026486;28;20073;-48
2021/05/30 02:59:55;;;;;;;20.88;15.40;;;8.20;99.00;;;;;;5029091;28;20060;-50
2021/05/30 03:02:29;;;;;;;24.33;15.30;;;8.20;99.20;;;;;;5028074;28;20053;-48
2021/05/30 03:05:01;;;;;;;22.52;15.48;;;8.10;99.50;;;;;;5028166;28;20572;-49
2021/05/30 03:07:29;;;;;;;20.15;14.13;;;8.10;99.50;;;;;;5029322;28;20045;-52
2021/05/30 03:09:59;;;;;;;23.88;15.15;;;8.10;99.30;;;;;;5011166;28;20049;-49
2021/05/30 03:12:30;;;;;;;23.67;16.37;;;8.00;99.30;;;;;;5026762;28;20045;-49
2021/05/30 03:15:08;;;;;;;22.17;15.07;;;8.00;99.50;;;;;;5030612;28;20132;-50
2021/05/30 03:17:39;;;;;;;21.25;15.40;;;7.90;99.70;;;;;;5028634;28;20497;-49
2021/05/30 03:20:08;;;;;;;21.93;15.13;;;7.90;99.30;;;;;;5038615;28;20045;-51
2021/05/30 03:22:40;;;;;;;24.65;16.58;;;7.80;99.60;;;;;;5029380;28;20080;-48
2021/05/30 03:25:09;;;;;;;21.60;15.52;;;7.80;99.50;;;;;;5028013;28;20056;-48
2021/05/30 03:27:42;;;;;;;23.00;17.10;;;7.90;99.80;;;;;;5028602;28;20060;-52
2021/05/30 03:30:12;;;;;;;21.83;16.15;;;7.80;99.60;;;;;;5024028;28;21837;-47
2021/05/30 03:32:42;;;;;;;20.10;15.68;;;7.80;99.30;;;;;;5025582;28;20057;-48
2021/05/30 03:35:11;;;;;;;19.95;15.40;;;7.80;99.60;;;;;;5027783;28;20045;-49
2021/05/30 03:37:40;;;;;;;24.70;16.17;;;7.80;99.70;;;;;;5028900;28;20087;-51
2021/05/30 03:43:05;;;;;;;21.40;15.40;;;7.80;99.80;;;;;;5028132;28;20056;-49
2021/05/30 03:45:38;;;;;;;22.95;15.40;;;7.80;99.90;;;;;;5027395;28;20440;-49
2021/05/30 03:48:08;;;;;;;20.08;15.48;;;7.80;99.90;;;;;;5027838;28;20088;-51
2021/05/30 03:50:34;;;;;;;21.10;15.95;;;7.70;99.70;;;;;;5028026;28;20144;-50
2021/05/30 03:53:06;;;;;;;26.02;16.85;;;7.80;99.50;;;;;;5028559;28;20052;-49
2021/05/30 03:55:38;;;;;;;27.25;16.40;;;7.80;99.80;;;;;;5028079;28;20053;-51
2021/05/30 03:58:10;;;;;;;24.88;16.90;;;7.90;99.90;;;;;;5025565;28;20738;-51
2021/05/30 04:00:39;;;;;;;22.80;17.70;;;7.80;99.90;;;;;;5028312;28;20049;-48
2021/05/30 04:03:08;;;;;;;23.45;16.77;;;7.80;99.90;;;;;;5034004;28;20065;-48
2021/05/30 04:05:44;;;;;;;29.40;17.75;;;7.90;99.90;;;;;;5028124;28;20140;-50
2021/05/30 04:08:10;;;;;;;28.58;17.67;;;7.90;99.90;;;;;;5025946;28;20489;-50
2021/05/30 04:10:45;;;;;;;26.67;17.13;;;7.90;99.90;;;;;;5027387;28;20053;-50
2021/05/30 04:13:17;;;;;;;27.20;16.98;;;7.90;99.90;;;;;;5027563;28;20493;-52
2021/05/30 04:15:47;;;;;;;24.30;17.60;;;8.00;99.90;;;;;;5027394;28;20073;-49
2021/05/30 04:18:16;;;;;;;29.05;18.38;;;8.00;99.90;;;;;;5027405;28;20135;-51
2021/05/30 04:20:46;;;;;;;25.42;17.92;;;8.00;99.90;;;;;;5028113;28;20076;-48
2021/05/30 04:23:22;;;;;;;26.75;18.85;;;8.00;99.90;;;;;;5027625;28;20079;-51
2021/05/30 04:25:53;;;;;;;26.63;18.83;;;8.10;99.90;;;;;;5027409;28;20049;-48
2021/05/30 04:28:22;;;;;;;25.90;19.05;;;8.20;99.90;;;;;;5027925;28;20064;-50
2021/05/30 04:30:49;;;;;;;29.38;18.63;;;8.20;99.90;;;;;;5028123;28;20053;-48
2021/05/30 04:33:18;;;;;;;27.65;18.10;;;8.20;99.90;;;;;;5028754;28;20045;-48
2021/05/30 04:35:47;;;;;;;26.10;17.75;;;8.40;99.90;;;;;;5028438;28;20041;-50
2021/05/30 04:38:19;;;;;;;28.77;18.58;;;8.40;99.90;;;;;;5028922;28;20124;-48
2021/05/30 04:40:51;;;;;;;25.00;17.08;;;8.50;99.90;;;;;;5026886;28;20520;-50
2021/05/30 04:43:20;;;;;;;23.60;17.70;;;8.60;99.90;;;;;;5030646;28;20068;-50
2021/05/30 04:45:49;;;;;;;28.20;17.90;;;8.70;99.90;;;;;;5008729;28;20808;-48
2021/05/30 04:48:22;;;;;;;26.30;17.55;;;8.70;99.90;;;;;;5026743;28;20049;-50
2021/05/30 04:51:09;;;;;;;23.73;17.75;;;8.80;99.90;;;;;;5026619;28;20081;-50
2021/05/30 04:53:40;;;;;;;29.60;18.30;;;8.90;99.90;;;;;;5026951;28;20046;-51
2021/05/30 04:56:09;;;;;;;22.48;16.48;;;9.00;99.90;;;;;;5026924;28;20049;-47
2021/05/30 04:58:41;;;;;;;24.52;17.25;;;9.00;99.90;;;;;;5027061;28;20112;-51
2021/05/30 05:01:11;;;;;;;30.25;17.38;;;9.10;99.90;;;;;;5026727;28;20069;-51
2021/05/30 05:03:41;;;;;;;27.38;17.42;;;9.20;99.90;;;;;;5007539;28;20564;-49
2021/05/30 05:06:17;;;;;;;25.15;15.68;;;9.40;99.90;;;;;;5026835;28;20088;-51
2021/05/30 05:08:49;;;;;;;25.10;16.02;;;9.80;99.90;;;;;;5026860;28;20056;-49
2021/05/30 05:11:22;;;;;;;24.23;15.27;;;10.20;99.40;;;;;;5026454;28;20433;-49
2021/05/30 05:13:58;;;;;;;22.48;15.30;;;10.50;98.80;;;;;;5026137;28;20049;-49
2021/05/30 05:16:29;;;;;;;24.60;14.60;;;10.80;98.40;;;;;;5019642;28;20049;-49
2021/05/30 05:18:59;;;;;;;19.85;14.60;;;11.10;98.00;;;;;;5027177;28;20374;-49
2021/05/30 05:21:26;;;;;;;17.50;14.00;;;11.20;97.80;;;;;;5027197;28;20056;-49
2021/05/30 05:23:56;;;;;;;24.85;14.77;;;11.40;97.40;;;;;;5027005;28;20049;-50
2021/05/30 05:26:27;;;;;;;21.63;14.85;;;11.50;97.20;;;;;;5026316;28;20112;-50
2021/05/30 05:28:59;;;;;;;21.42;15.00;;;11.70;96.70;;;;;;5026881;28;20099;-51
2021/05/30 05:31:28;;;;;;;20.77;14.13;;;11.90;96.50;;;;;;5026680;28;20053;-49
2021/05/30 05:34:00;;;;;;;20.92;13.65;;;12.00;96.00;;;;;;5027050;28;20045;-50
2021/05/30 05:36:29;;;;;;;22.65;13.68;;;12.10;95.90;;;;;;5027018;28;20045;-48
2021/05/30 05:39:02;;;;;;;20.95;13.82;;;12.30;95.40;;;;;;5026331;28;20576;-48
2021/05/30 05:41:35;;;;;;;19.75;13.80;;;12.40;95.10;;;;;;5028887;28;20084;-49
2021/05/30 05:44:09;;;;;;;17.92;13.75;;;12.70;94.50;;;;;;5025950;28;20103;-51
2021/05/30 05:46:38;;;;;;;17.70;13.77;;;12.80;94.60;;;;;;5026325;28;20501;-50
2021/05/30 05:49:07;;;;;;;18.48;12.68;;;12.80;94.00;;;;;;5024416;28;20061;-53
2021/05/30 05:51:36;;;;;;;17.83;12.75;;;13.00;93.90;;;;;;5027383;28;20072;-49
2021/05/30 05:54:08;;;;;;;15.98;12.35;;;13.10;93.40;;;;;;5027531;28;20092;-49
2021/05/30 05:56:36;;;;;;;18.33;12.45;;;13.10;93.20;;;;;;5032623;28;20131;-52
2021/05/30 05:59:09;;;;;;;17.30;11.77;;;13.30;92.80;;;;;;5027934;28;20049;-53
2021/05/30 06:01:43;;;;;;;16.33;11.60;;;13.40;93.10;;;;;;5026652;28;20045;-50
2021/05/30 06:04:09;;;;;;;16.38;12.48;;;13.30;92.60;;;;;;5026537;28;20149;-51
2021/05/30 06:06:41;;;;;;;16.42;11.95;;;13.10;92.10;;;;;;5026341;28;20069;-53
2021/05/30 06:09:15;;;;;;;17.50;12.07;;;13.10;92.70;;;;;;5008604;28;20053;-57
2021/05/30 06:11:45;;;;;;;20.85;12.98;;;13.50;92.80;;;;;;5027026;28;20055;-55
2021/05/30 06:14:12;;;;;;;19.35;12.50;;;13.50;92.40;;;;;;5024528;28;20045;-56
2021/05/30 06:16:41;;;;;;;19.88;13.57;;;13.80;92.20;;;;;;5024723;28;20053;-56
2021/05/30 06:19:07;;;;;;;18.88;12.07;;;13.70;91.90;;;;;;5021268;28;20054;-52
2021/05/30 06:21:38;;;;;;;25.73;19.38;;;13.80;91.50;;;;;;5022701;28;20057;-56
2021/05/30 06:24:10;;;;;;;27.05;18.48;;;13.60;91.20;;;;;;5020960;28;20077;-56
2021/05/30 06:26:37;;;;;;;;;;;13.40;91.70;;;;;;5020302;28;20046;-55
2021/05/30 06:29:11;;;;;;;19.58;13.98;;;13.30;90.90;;;;;;5022678;28;20151;-57
2021/05/30 06:31:43;;;;;;;31.52;18.02;;;13.50;92.30;;;;;;5021057;28;20057;-55
2021/05/30 06:34:15;;;;;;;31.88;22.58;;;13.80;91.90;;;;;;5023392;28;20083;-57
2021/05/30 06:36:43;;;;;;;16.70;14.10;;;14.10;91.50;;;;;;5030391;28;20045;-58
2021/05/30 06:39:10;;;;;;;19.20;14.73;;;14.60;91.20;;;;;;5028772;28;20220;-58
2021/05/30 06:41:37;;;;;;;31.98;25.92;;;15.00;90.60;;;;;;5030119;28;20184;-57
2021/05/30 06:44:07;;;;;;;18.73;14.05;;;15.20;90.00;;;;;;5029500;28;20049;-58
2021/05/30 06:46:39;;;;;;;18.88;13.90;;;15.30;87.80;;;;;;5029696;28;20057;-58
2021/05/30 06:49:08;;;;;;;41.25;35.40;;;15.70;87.00;;;;;;5027412;28;20060;-58
2021/05/30 06:51:43;;;;;;;17.40;12.27;;;15.80;85.50;;;;;;5010734;28;20053;-58
2021/05/30 06:54:16;;;;;;;20.33;15.18;;;16.00;85.10;;;;;;5029952;28;20496;-59
2021/05/30 06:56:46;;;;;;;68.80;58.65;;;16.10;85.20;;;;;;5027940;28;20057;-60
2021/05/30 06:59:20;;;;;;;;;;;16.20;84.40;;;;;;5029134;28;20045;-60
2021/05/30 07:01:52;;;;;;;28.55;23.92;;;16.10;78.50;;;;;;5029537;28;20354;-60
2021/05/30 07:04:26;;;;;;;22.30;18.88;;;16.10;85.50;;;;;;5028597;28;20577;-59
2021/05/30 07:06:56;;;;;;;21.70;15.27;;;16.50;83.90;;;;;;5028231;28;20045;-60
2021/05/30 07:09:25;;;;;;;33.95;29.42;;;16.60;83.30;;;;;;5029327;28;20058;-59
2021/05/30 07:11:57;;;;;;;20.10;14.07;;;16.50;82.00;;;;;;5029272;28;20465;-59
2021/05/30 07:14:32;;;;;;;18.15;14.55;;;16.80;80.30;;;;;;5007146;28;20058;-60
2021/05/30 07:17:06;;;;;;;26.33;22.02;;;16.60;80.00;;;;;;5029145;28;20052;-60
2021/05/30 07:19:46;;;;;;;17.10;12.68;;;16.70;80.80;;;;;;5028663;28;20429;-60
2021/05/30 07:22:15;;;;;;;32.35;27.08;;;16.80;81.10;;;;;;5026805;28;20045;-59
2021/05/30 07:24:44;;;;;;;64.43;57.80;;;16.80;79.60;;;;;;5004813;28;20053;-59
2021/05/30 07:27:16;;;;;;;17.48;13.30;;;17.20;79.80;;;;;;5022097;28;20045;-59
2021/05/30 07:29:51;;;;;;;16.92;11.98;;;16.80;78.20;;;;;;5027855;28;20045;-59
2021/05/30 07:32:20;;;;;;;19.88;16.00;;;16.90;78.10;;;;;;5025968;28;20417;-57
2021/05/30 07:34:47;;;;;;;13.10;9.98;;;17.30;79.50;;;;;;5026558;28;20068;-59
2021/05/30 07:37:16;;;;;;;15.98;10.40;;;17.40;78.60;;;;;;5008359;28;20167;-59
2021/05/30 07:39:48;;;;;;;13.90;9.77;;;17.20;76.90;;;;;;5028523;28;20061;-59
2021/05/30 07:42:21;;;;;;;13.50;10.40;;;17.30;76.10;;;;;;5029457;28;20049;-59
2021/05/30 07:44:48;;;;;;;14.90;10.60;;;17.50;77.50;;;;;;5027250;28;20059;-59
2021/05/30 07:47:22;;;;;;;15.60;11.15;;;17.80;79.00;;;;;;5018012;28;20431;-59
2021/05/30 07:49:51;;;;;;;13.55;9.90;;;17.70;77.40;;;;;;5028750;28;20057;-58
2021/05/30 07:52:23;;;;;;;13.70;9.82;;;17.70;76.90;;;;;;5029520;28;20160;-59
2021/05/30 07:54:50;;;;;;;12.48;10.65;;;17.90;74.60;;;;;;5026671;28;20050;-59
2021/05/30 07:57:19;;;;;;;14.50;11.15;;;18.00;76.50;;;;;;5010153;28;20058;-59
2021/05/30 07:59:49;;;;;;;16.02;10.95;;;17.80;74.00;;;;;;5022336;28;20050;-59
2021/05/30 08:02:27;;;;;;;13.25;10.48;;;18.30;73.70;;;;;;5029751;28;20049;-59
2021/05/30 08:05:00;;;;;;;14.80;10.68;;;18.40;72.20;;;;;;5027085;28;20046;-59
2021/05/30 08:07:33;;;;;;;11.82;10.55;;;18.80;70.40;;;;;;5025694;28;20051;-59
2021/05/30 08:10:06;;;;;;;12.88;9.77;;;18.80;69.90;;;;;;5020762;28;20566;-59
2021/05/30 08:12:42;;;;;;;14.40;10.60;;;18.80;69.20;;;;;;5021417;28;20097;-58
2021/05/30 08:15:10;;;;;;;14.88;10.95;;;18.50;69.10;;;;;;5019333;28;20447;-59
2021/05/30 08:17:40;;;;;;;13.45;11.23;;;18.50;69.50;;;;;;5035917;28;20048;-59
2021/05/30 08:20:23;;;;;;;12.80;9.73;;;18.50;70.90;;;;;;5027406;28;20716;-59
2021/05/30 08:22:53;;;;;;;15.52;11.05;;;18.60;69.80;;;;;;5028838;28;20050;-59
2021/05/30 08:25:30;;;;;;;13.75;10.45;;;18.80;68.60;;;;;;5028149;28;20077;-59
2021/05/30 08:27:59;;;;;;;12.25;11.00;;;19.00;67.90;;;;;;5028769;28;20129;-59
2021/05/30 08:30:39;;;;;;;12.05;9.85;;;19.00;67.80;;;;;;5011569;28;20080;-59
2021/05/30 08:33:06;;;;;;;13.40;9.95;;;19.20;68.80;;;;;;5028781;28;20061;-59
2021/05/30 08:35:36;;;;;;;12.38;10.50;;;19.70;68.10;;;;;;5031736;28;20111;-58
2021/05/30 08:38:05;;;;;;;11.20;9.85;;;19.90;66.70;;;;;;5035311;28;20048;-59
2021/05/30 08:40:39;;;;;;;12.60;9.63;;;19.80;65.50;;;;;;5026399;28;20127;-59
2021/05/30 08:43:05;;;;;;;13.13;9.98;;;19.90;65.60;;;;;;5027141;28;20493;-59
2021/05/30 08:45:34;;;;;;;12.32;9.85;;;19.90;65.50;;;;;;5015538;28;20065;-59
2021/05/30 08:48:07;;;;;;;12.63;9.80;;;20.10;65.20;;;;;;5027955;28;20053;-59
2021/05/30 08:50:33;;;;;;;12.98;10.10;;;20.20;65.80;;;;;;5029560;28;20060;-59
2021/05/30 08:53:10;;;;;;;13.88;9.50;;;20.60;67.70;;;;;;5036957;28;20096;-57
2021/05/30 08:55:42;;;;;;;13.70;9.60;;;20.60;64.60;;;;;;5045947;28;20056;-57
2021/05/30 08:58:16;;;;;;;13.88;9.05;;;20.80;63.30;;;;;;5009662;28;20148;-57
2021/05/30 09:01:16;;;;;;;12.23;9.48;;;20.70;64.30;;;;;;5011923;28;20056;-57
2021/05/30 09:03:52;;;;;;;13.20;9.05;;;21.10;64.10;;;;;;5027438;28;20129;-57
2021/05/30 09:06:30;;;;;;;14.30;9.95;;;21.00;61.90;;;;;;5027673;28;20045;-58
2021/05/30 09:09:04;;;;;;;11.38;10.02;;;21.10;63.10;;;;;;5023126;28;20049;-57
2021/05/30 09:11:46;;;;;;;13.60;10.02;;;21.20;64.70;;;;;;4995364;28;20508;-57
2021/05/30 09:14:23;;;;;;;12.25;10.40;;;21.80;63.10;;;;;;5027130;28;20425;-58
2021/05/30 09:17:07;;;;;;;13.85;10.23;;;21.40;60.40;;;;;;5026693;28;20045;-57
2021/05/30 09:19:45;;;;;;;13.50;10.27;;;20.90;58.90;;;;;;5027443;28;20057;-57
2021/05/30 09:22:29;;;;;;;13.57;10.05;;;21.00;60.50;;;;;;5020323;28;20043;-57
2021/05/30 09:25:03;;;;;;;13.38;9.98;;;21.10;61.60;;;;;;5011954;28;20053;-57
2021/05/30 09:27:50;;;;;;;13.55;10.00;;;21.30;61.70;;;;;;5025300;28;20474;-58
2021/05/30 09:30:29;;;;;;;11.57;9.15;;;21.50;60.20;;;;;;5028291;28;20038;-57
2021/05/30 09:33:18;;;;;;;12.45;10.25;;;21.30;58.90;;;;;;5026029;28;20089;-57
2021/05/30 09:35:53;;;;;;;12.32;10.30;;;21.20;57.20;;;;;;5026827;28;20096;-58
2021/05/30 09:38:36;;;;;;;12.38;9.57;;;21.40;60.30;;;;;;5028187;28;20059;-57
2021/05/30 09:41:12;;;;;;;12.00;9.30;;;21.80;56.70;;;;;;5011453;28;20057;-57
2021/05/30 09:43:54;;;;;;;12.48;9.32;;;21.70;57.80;;;;;;5028656;28;20073;-58
2021/05/30 09:46:32;;;;;;;12.27;8.98;;;21.80;55.30;;;;;;5030857;28;20386;-57
2021/05/30 09:49:02;;;;;;;9.88;8.35;;;21.70;57.20;;;;;;5013932;28;20053;-57
2021/05/30 09:51:41;;;;;;;10.38;8.98;;;22.20;55.90;;;;;;5018213;28;20049;-58
2021/05/30 09:54:18;;;;;;;9.93;8.43;;;22.30;58.50;;;;;;5015563;28;20104;-58
2021/05/30 09:56:53;;;;;;;10.63;8.80;;;22.50;55.90;;;;;;5017228;28;20049;-58
2021/05/30 09:59:39;;;;;;;12.18;9.60;;;22.90;55.30;;;;;;5026769;28;20127;-58
2021/05/30 10:02:13;;;;;;;11.73;9.20;;;23.30;55.20;;;;;;5012121;28;20093;-59
2021/05/30 10:04:51;;;;;;;10.55;9.27;;;23.00;53.40;;;;;;5021471;28;20050;-59
2021/05/30 10:07:22;;;;;;;10.45;9.35;;;23.60;52.70;;;;;;5026386;28;20127;-58
2021/05/30 10:09:49;;;;;;;10.95;8.80;;;23.30;52.90;;;;;;5026015;28;20050;-58
2021/05/30 10:12:26;;;;;;;11.32;8.82;;;23.10;53.00;;;;;;5027441;28;20053;-58
2021/05/30 10:15:01;;;;;;;10.88;8.68;;;22.80;52.10;;;;;;5030017;28;20513;-58
2021/05/30 10:17:31;;;;;;;12.27;9.27;;;22.90;52.80;;;;;;5030654;28;20736;-57
2021/05/30 10:20:02;;;;;;;9.48;8.48;;;22.90;54.10;;;;;;5027661;28;20565;-57
2021/05/30 10:22:33;;;;;;;10.18;8.43;;;22.80;52.80;;;;;;5001524;28;20049;-58
2021/05/30 10:24:59;;;;;;;8.40;7.60;;;22.90;52.80;;;;;;5031118;28;20071;-59
2021/05/30 10:27:30;;;;;;;9.73;7.88;;;22.90;52.00;;;;;;5031015;28;20057;-59
2021/05/30 10:30:15;;;;;;;9.73;7.90;;;23.20;49.90;;;;;;5030189;28;20131;-59
2021/05/30 10:32:49;;;;;;;11.95;8.52;;;23.30;48.50;;;;;;5029033;28;20103;-59
2021/05/30 10:35:24;;;;;;;10.43;7.78;;;23.50;49.50;;;;;;5030871;28;20140;-59
2021/05/30 10:37:57;;;;;;;9.68;8.27;;;23.30;49.60;;;;;;5015965;28;20081;-58
2021/05/30 10:40:26;;;;;;;10.47;7.83;;;23.10;50.20;;;;;;5013629;28;20049;-58
2021/05/30 10:43:11;;;;;;;10.13;7.63;;;22.90;50.30;;;;;;5029914;28;20056;-59
2021/05/30 10:45:58;;;;;;;9.05;7.20;;;23.10;49.80;;;;;;5030453;28;20556;-58
2021/05/30 10:48:35;;;;;;;8.43;6.57;;;23.90;51.00;;;;;;5030075;28;20045;-58
2021/05/30 10:51:15;;;;;;;8.75;6.25;;;24.20;50.30;;;;;;5030499;28;20520;-58
2021/05/30 10:53:49;;;;;;;6.60;5.90;;;24.20;48.20;;;;;;5015951;28;20050;-58
2021/05/30 10:56:23;;;;;;;8.48;6.18;;;24.70;44.60;;;;;;5030905;28;20053;-58
2021/05/30 10:59:07;;;;;;;6.40;4.97;;;24.60;43.90;;;;;;5030502;28;20045;-58
2021/05/30 11:01:40;;;;;;;9.15;6.03;;;24.40;44.00;;;;;;5030718;28;20458;-58
2021/05/30 11:04:24;;;;;;;8.77;6.28;;;24.80;42.90;;;;;;5030564;28;20054;-58
2021/05/30 11:06:50;;;;;;;10.25;7.07;;;24.40;45.40;;;;;;5034154;28;20409;-60
2021/05/30 11:09:43;;;;;;;8.63;7.35;;;25.20;48.60;;;;;;5030439;28;20057;-59
2021/05/30 11:12:20;;;;;;;7.85;6.53;;;25.30;47.50;;;;;;5029711;28;20057;-58
2021/05/30 11:15:10;;;;;;;7.75;5.70;;;25.60;44.40;;;;;;5035411;28;20037;-58
2021/05/30 11:17:56;;;;;;;7.72;5.13;;;25.30;40.60;;;;;;5029507;28;20076;-58
2021/05/30 11:20:43;;;;;;;7.05;5.47;;;25.40;42.50;;;;;;5010685;28;20065;-58
2021/05/30 11:23:21;;;;;;;9.60;6.25;;;25.20;42.70;;;;;;5016759;28;20065;-59
2021/05/30 11:25:55;;;;;;;7.07;5.45;;;25.60;45.10;;;;;;5029709;28;20076;-58
2021/05/30 11:28:30;;;;;;;7.90;5.43;;;25.90;45.30;;;;;;5033269;28;20045;-59
2021/05/30 11:31:13;;;;;;;9.00;5.90;;;26.10;44.90;;;;;;5029147;28;20065;-55
2021/05/30 11:33:55;;;;;;;6.97;5.03;;;25.20;41.70;;;;;;5020624;28;20100;-58
2021/05/30 11:36:35;;;;;;;7.38;5.20;;;25.80;43.90;;;;;;5012758;28;20794;-57
2021/05/30 11:39:18;;;;;;;7.10;4.68;;;26.20;42.90;;;;;;5030339;28;20144;-59
2021/05/30 11:41:46;;;;;;;8.35;4.68;;;26.60;43.10;;;;;;5009835;28;20513;-59
2021/05/30 11:44:27;;;;;;;6.78;4.22;;;26.30;40.80;;;;;;5011658;28;20529;-59
2021/05/30 11:47:08;;;;;;;5.13;3.92;;;26.50;41.40;;;;;;5023253;28;20076;-58
2021/05/30 11:49:42;;;;;;;7.43;4.50;;;26.40;41.90;;;;;;5028989;28;20053;-58
2021/05/30 11:52:20;;;;;;;8.02;4.40;;;26.80;43.50;;;;;;5028453;28;20052;-59
2021/05/30 11:54:54;;;;;;;6.95;4.43;;;26.70;41.40;;;;;;5029584;28;20049;-56
2021/05/30 11:57:27;;;;;;;7.40;4.45;;;26.80;41.20;;;;;;5029646;28;20152;-57
2021/05/30 12:00:09;;;;;;;6.05;3.90;;;26.90;38.60;;;;;;5028206;28;20478;-57
2021/05/30 12:02:42;;;;;;;6.40;3.72;;;27.00;38.10;;;;;;5028519;28;20061;-56
2021/05/30 12:05:15;;;;;;;6.32;4.28;;;26.90;40.00;;;;;;5009139;28;20053;-57
2021/05/30 12:07:50;;;;;;;7.10;4.72;;;27.00;39.70;;;;;;5033716;28;20046;-56
2021/05/30 12:10:23;;;;;;;6.60;4.07;;;27.20;41.00;;;;;;5032114;28;20056;-59
2021/05/30 12:12:54;;;;;;;7.65;3.80;;;27.20;39.10;;;;;;5029059;28;20037;-59
2021/05/30 12:15:27;;;;;;;8.50;3.60;;;27.60;39.40;;;;;;5013502;28;20534;-57
2021/05/30 12:18:07;;;;;;;7.10;3.90;;;27.50;40.70;;;;;;5024139;28;20053;-59
2021/05/30 12:20:43;;;;;;;9.52;4.72;;;27.50;41.60;;;;;;5027168;28;20049;-59
2021/05/30 12:23:22;;;;;;;9.38;7.88;;;27.80;40.50;;;;;;5026889;28;20104;-59
2021/05/30 12:25:59;;;;;;;28.10;25.45;;;27.80;41.00;;;;;;5028724;28;20049;-58
2021/05/30 12:28:33;;;;;;;5.72;3.70;;;27.90;40.00;;;;;;5026577;28;20049;-59
2021/05/30 12:31:05;;;;;;;6.10;3.72;;;28.00;39.20;;;;;;5027034;28;20409;-61
2021/05/30 12:33:55;;;;;;;6.75;4.45;;;27.30;38.70;;;;;;5025773;28;20486;-58
2021/05/30 12:36:50;;;;;;;5.32;3.08;;;27.70;41.20;;;;;;5026091;28;20054;-58
2021/05/30 12:39:26;;;;;;;15.40;12.95;;;27.60;38.40;;;;;;5022115;28;20056;-59
2021/05/30 12:42:04;;;;;;;33.45;15.30;;;27.50;37.60;;;;;;5024662;28;20471;-58
2021/05/30 12:44:54;;;;;;;7.43;5.40;;;27.40;38.90;;;;;;5011288;28;20748;-58
2021/05/30 12:47:23;;;;;;;8.35;5.53;;;27.60;39.80;;;;;;5033481;28;20049;-58
2021/05/30 12:49:59;;;;;;;9.73;7.57;;;27.30;38.50;;;;;;5024636;28;20073;-58
2021/05/30 12:53:01;;;;;;;8.40;6.60;;;27.10;38.70;;;;;;5027219;28;20056;-58
2021/05/30 12:55:41;;;;;;;7.03;5.50;;;27.60;38.60;;;;;;4946471;29;20043;-58
2021/05/30 12:58:19;;;;;;;7.53;4.30;;;27.40;40.40;;;;;;4946944;28;20062;-58
2021/05/30 13:00:48;;;;;;;7.32;3.78;;;28.00;40.50;;;;;;4945658;28;20043;-58
2021/05/30 13:03:25;;;;;;;10.20;3.90;;;27.90;41.80;;;;;;4934871;29;20150;-58
2021/05/30 13:05:51;;;;;;;8.00;4.78;;;28.00;42.30;;;;;;4945157;28;20545;-58
2021/05/30 13:08:18;;;;;;;10.50;7.22;;;27.90;40.30;;;;;;4944699;28;20049;-57